Time;durP1;ratioP1;P1;durP2;ratioP2;P2;SDS_P1;SDS_P2;PMS_P1;PMS_P2;Temp;Humidity;BMP_temperature;BMP_pressure;BME280_temperature;BME280_humidity;BME280_pressure;Samples;Min_cycle;Max_cycle;Signal;HPM_P1;HPM_P2
2021/10/17 00:00:09;;;;;;;9.18;5.30;;;;;;;;;;5071129;28;20468;-56
2021/10/17 00:02:34;;;;;;;13.07;5.75;;;;;;;;;;5070624;28;20081;-56
2021/10/17 00:04:59;;;;;;;13.82;5.72;;;;;;;;;;5071411;28;20107;-56
2021/10/17 00:07:25;;;;;;;11.10;5.13;;;;;;;;;;5070781;28;20380;-57
2021/10/17 00:09:50;;;;;;;8.88;5.32;;;;;;;;;;5069448;28;20484;-57
2021/10/17 00:12:15;;;;;;;8.63;6.03;;;;;;;;;;5070674;28;20048;-57
2021/10/17 00:14:40;;;;;;;9.20;5.18;;;;;;;;;;5070708;28;20024;-57
2021/10/17 00:17:06;;;;;;;9.73;5.68;;;;;;;;;;5069684;28;20028;-57
2021/10/17 00:19:31;;;;;;;8.75;5.00;;;;;;;;;;5072019;28;20056;-54
2021/10/17 00:21:56;;;;;;;10.57;4.78;;;;;;;;;;5073678;28;20463;-56
2021/10/17 00:24:21;;;;;;;10.10;4.32;;;;;;;;;;5074461;28;20063;-56
2021/10/17 00:26:47;;;;;;;12.75;5.95;;;;;;;;;;5070317;28;20040;-57
2021/10/17 00:29:12;;;;;;;9.35;5.18;;;;;;;;;;5074557;28;20025;-52
2021/10/17 00:31:37;;;;;;;9.30;5.00;;;;;;;;;;5074246;28;20064;-56
2021/10/17 00:34:03;;;;;;;8.50;4.70;;;;;;;;;;5074035;28;20111;-54
2021/10/17 00:36:28;;;;;;;7.90;4.32;;;;;;;;;;5074007;28;20028;-56
2021/10/17 00:38:54;;;;;;;8.90;5.10;;;;;;;;;;5074580;28;20087;-55
2021/10/17 00:41:19;;;;;;;9.55;4.10;;;;;;;;;;5073925;28;20111;-56
2021/10/17 00:43:45;;;;;;;10.45;5.30;;;;;;;;;;5073658;28;20024;-56
2021/10/17 00:46:17;;;;;;;13.48;4.97;;;;;;;;;;5074225;28;20392;-56
2021/10/17 00:48:43;;;;;;;7.05;4.63;;;;;;;;;;5074649;28;20135;-53
2021/10/17 00:51:08;;;;;;;9.25;4.28;;;;;;;;;;5073494;28;20103;-56
2021/10/17 00:53:34;;;;;;;9.52;3.88;;;;;;;;;;5073243;28;20108;-53
2021/10/17 00:55:59;;;;;;;8.43;3.78;;;;;;;;;;5070550;28;20104;-54
2021/10/17 00:58:25;;;;;;;8.07;4.40;;;;;;;;;;5073407;28;20081;-54
2021/10/17 01:00:50;;;;;;;8.45;4.28;;;;;;;;;;5072046;28;20116;-57
2021/10/17 01:03:15;;;;;;;7.35;3.97;;;;;;;;;;5073698;28;20124;-56
2021/10/17 01:05:40;;;;;;;12.55;4.93;;;;;;;;;;5073562;28;20067;-57
2021/10/17 01:08:05;;;;;;;7.93;4.10;;;;;;;;;;5073626;28;20032;-56
2021/10/17 01:10:31;;;;;;;8.68;4.03;;;;;;;;;;5072235;28;20032;-56
2021/10/17 01:12:56;;;;;;;5.82;3.78;;;;;;;;;;5072711;28;20167;-58
2021/10/17 01:15:21;;;;;;;11.25;3.97;;;;;;;;;;5089186;28;20268;-57
2021/10/17 01:17:46;;;;;;;9.18;4.50;;;;;;;;;;5073990;28;20016;-57
2021/10/17 01:20:12;;;;;;;10.60;4.22;;;;;;;;;;5073479;28;20528;-57
2021/10/17 01:22:37;;;;;;;12.32;4.80;;;;;;;;;;5072359;28;20472;-56
2021/10/17 01:25:03;;;;;;;8.45;3.95;;;;;;;;;;5073687;28;20039;-51
2021/10/17 01:27:28;;;;;;;8.98;3.58;;;;;;;;;;5067577;28;20036;-57
2021/10/17 01:29:53;;;;;;;8.75;4.25;;;;;;;;;;5073077;28;20031;-56
2021/10/17 01:32:19;;;;;;;11.35;4.00;;;;;;;;;;5072719;28;20067;-55
2021/10/17 01:34:44;;;;;;;9.20;5.50;;;;;;;;;;5073182;28;20024;-56
2021/10/17 01:37:09;;;;;;;7.07;4.03;;;;;;;;;;5071158;28;20024;-56
2021/10/17 01:39:34;;;;;;;7.38;4.18;;;;;;;;;;5073379;28;20240;-53
2021/10/17 01:41:59;;;;;;;8.25;3.92;;;;;;;;;;5073054;28;20020;-57
2021/10/17 01:44:28;;;;;;;8.60;4.25;;;;;;;;;;5073243;28;20025;-57
2021/10/17 01:46:54;;;;;;;9.32;3.55;;;;;;;;;;5073171;28;20017;-55
2021/10/17 01:49:20;;;;;;;7.78;4.13;;;;;;;;;;5073209;28;20085;-55
2021/10/17 01:51:45;;;;;;;7.65;3.97;;;;;;;;;;5071676;28;20446;-57
2021/10/17 01:54:10;;;;;;;8.60;4.35;;;;;;;;;;5073421;28;20024;-57
2021/10/17 01:56:36;;;;;;;11.40;4.85;;;;;;;;;;5068512;28;20028;-54
2021/10/17 01:59:01;;;;;;;6.47;3.78;;;;;;;;;;5072540;28;20069;-56
2021/10/17 02:01:26;;;;;;;9.13;3.90;;;;;;;;;;5072616;28;20032;-56
2021/10/17 02:03:52;;;;;;;5.95;3.67;;;;;;;;;;5072462;28;20116;-56
2021/10/17 02:06:17;;;;;;;7.45;3.55;;;;;;;;;;5072132;28;20024;-57
2021/10/17 02:08:42;;;;;;;6.78;3.30;;;;;;;;;;5072726;28;20040;-58
2021/10/17 02:11:08;;;;;;;6.93;3.42;;;;;;;;;;5072391;28;20534;-54
2021/10/17 02:13:33;;;;;;;8.52;3.20;;;;;;;;;;5072289;28;20028;-56
2021/10/17 02:15:58;;;;;;;7.18;3.17;;;;;;;;;;5071135;28;20447;-56
2021/10/17 02:18:23;;;;;;;9.27;3.40;;;;;;;;;;5072372;28;20111;-54
2021/10/17 02:20:48;;;;;;;9.63;3.63;;;;;;;;;;5072345;28;20028;-56
2021/10/17 02:23:14;;;;;;;7.10;3.28;;;;;;;;;;5071579;28;20074;-56
2021/10/17 02:25:39;;;;;;;7.70;3.00;;;;;;;;;;5067909;28;20033;-56
2021/10/17 02:28:04;;;;;;;7.10;3.75;;;;;;;;;;5071585;28;20122;-56
2021/10/17 02:30:29;;;;;;;8.30;3.28;;;;;;;;;;5087008;28;20092;-56
2021/10/17 02:32:54;;;;;;;7.32;3.63;;;;;;;;;;5072210;28;20073;-56
2021/10/17 02:35:20;;;;;;;6.40;3.30;;;;;;;;;;5071907;28;20020;-55
2021/10/17 02:37:45;;;;;;;7.63;3.85;;;;;;;;;;5071723;28;20119;-56
2021/10/17 02:40:10;;;;;;;7.65;3.45;;;;;;;;;;5071887;28;20033;-56
2021/10/17 02:42:36;;;;;;;9.63;3.33;;;;;;;;;;5070853;28;20389;-52
2021/10/17 02:45:01;;;;;;;6.28;3.22;;;;;;;;;;5070160;28;20071;-55
2021/10/17 02:47:26;;;;;;;9.73;3.20;;;;;;;;;;5071077;28;20032;-51
2021/10/17 02:49:51;;;;;;;6.35;3.13;;;;;;;;;;5070368;28;20016;-54
2021/10/17 02:52:17;;;;;;;5.05;2.70;;;;;;;;;;5069021;28;20508;-55
2021/10/17 02:54:42;;;;;;;6.00;2.88;;;;;;;;;;5071601;28;20032;-56
2021/10/17 02:57:07;;;;;;;9.35;2.88;;;;;;;;;;5066209;28;20029;-57
2021/10/17 02:59:32;;;;;;;7.00;3.03;;;;;;;;;;5072132;28;20104;-55
2021/10/17 03:01:57;;;;;;;5.13;3.50;;;;;;;;;;5070725;28;20480;-55
2021/10/17 03:04:23;;;;;;;5.15;2.65;;;;;;;;;;5070001;28;20484;-57
2021/10/17 03:06:48;;;;;;;5.50;2.85;;;;;;;;;;5071023;28;20060;-54
2021/10/17 03:09:13;;;;;;;6.75;3.38;;;;;;;;;;5072078;28;20020;-54
2021/10/17 03:11:38;;;;;;;4.07;2.70;;;;;;;;;;5070244;28;20055;-56
2021/10/17 03:14:04;;;;;;;8.00;3.33;;;;;;;;;;5071306;28;20028;-57
2021/10/17 03:16:29;;;;;;;7.30;3.25;;;;;;;;;;5071366;28;20486;-57
2021/10/17 03:18:55;;;;;;;10.57;3.03;;;;;;;;;;5071416;28;20085;-52
2021/10/17 03:21:20;;;;;;;6.72;2.75;;;;;;;;;;5071671;28;20021;-56
2021/10/17 03:23:45;;;;;;;7.15;2.80;;;;;;;;;;5069433;28;20039;-55
2021/10/17 03:26:10;;;;;;;7.18;3.47;;;;;;;;;;5066545;28;20539;-56
2021/10/17 03:28:35;;;;;;;7.68;2.90;;;;;;;;;;5070207;28;20347;-57
2021/10/17 03:31:05;;;;;;;8.13;3.25;;;;;;;;;;5071439;28;20389;-56
2021/10/17 03:33:30;;;;;;;5.05;2.60;;;;;;;;;;5071591;28;20027;-55
2021/10/17 03:35:55;;;;;;;5.78;2.88;;;;;;;;;;5070780;28;20435;-57
2021/10/17 03:38:21;;;;;;;8.70;3.47;;;;;;;;;;5071074;28;20469;-56
2021/10/17 03:40:46;;;;;;;4.80;2.28;;;;;;;;;;5071254;28;20040;-57
2021/10/17 03:43:11;;;;;;;4.45;2.65;;;;;;;;;;5071479;28;20078;-57
2021/10/17 03:45:36;;;;;;;5.43;2.72;;;;;;;;;;5070972;28;20028;-55
2021/10/17 03:48:01;;;;;;;7.93;3.03;;;;;;;;;;5072191;28;20024;-55
2021/10/17 03:50:27;;;;;;;6.07;2.80;;;;;;;;;;5070860;28;20029;-56
2021/10/17 03:52:52;;;;;;;6.85;3.00;;;;;;;;;;5070816;28;20411;-57
2021/10/17 03:55:17;;;;;;;5.85;2.42;;;;;;;;;;5073178;28;20095;-54
2021/10/17 03:57:42;;;;;;;6.93;3.00;;;;;;;;;;5072279;28;20064;-56
2021/10/17 04:00:08;;;;;;;6.88;2.75;;;;;;;;;;5074666;28;20040;-57
2021/10/17 04:02:36;;;;;;;9.15;2.60;;;;;;;;;;5075100;28;20491;-55
2021/10/17 04:05:01;;;;;;;5.22;2.85;;;;;;;;;;5075260;28;20131;-56
2021/10/17 04:07:26;;;;;;;8.20;2.55;;;;;;;;;;5074172;28;20467;-55
2021/10/17 04:09:52;;;;;;;5.93;3.10;;;;;;;;;;5074841;28;20382;-57
2021/10/17 04:12:17;;;;;;;6.00;2.72;;;;;;;;;;5074509;28;20060;-57
2021/10/17 04:14:42;;;;;;;5.60;2.50;;;;;;;;;;5074897;28;20411;-55
2021/10/17 04:17:07;;;;;;;6.55;2.42;;;;;;;;;;5074146;28;20017;-57
2021/10/17 04:19:33;;;;;;;7.57;3.25;;;;;;;;;;5074992;28;20027;-56
2021/10/17 04:21:58;;;;;;;6.28;3.00;;;;;;;;;;5073628;28;20028;-56
2021/10/17 04:24:23;;;;;;;6.18;3.30;;;;;;;;;;5074719;28;20024;-57
2021/10/17 04:26:48;;;;;;;4.28;2.53;;;;;;;;;;5068678;28;20043;-56
2021/10/17 04:29:13;;;;;;;4.75;2.35;;;;;;;;;;5074426;28;20028;-54
2021/10/17 04:31:39;;;;;;;4.60;2.72;;;;;;;;;;5073274;28;20032;-58
2021/10/17 04:34:04;;;;;;;7.47;3.00;;;;;;;;;;5074793;28;20419;-56
2021/10/17 04:36:29;;;;;;;5.53;3.08;;;;;;;;;;5089572;28;20074;-55
2021/10/17 04:38:55;;;;;;;6.28;2.95;;;;;;;;;;5074373;28;20019;-57
2021/10/17 04:41:20;;;;;;;5.55;2.25;;;;;;;;;;5074890;28;20033;-56
2021/10/17 04:43:45;;;;;;;5.18;2.58;;;;;;;;;;5074065;28;20032;-56
2021/10/17 04:46:10;;;;;;;6.57;2.95;;;;;;;;;;5074545;28;20028;-57
2021/10/17 04:48:36;;;;;;;8.00;3.05;;;;;;;;;;5074494;28;20044;-52
2021/10/17 04:51:01;;;;;;;4.88;2.50;;;;;;;;;;5072763;28;20041;-55
2021/10/17 04:53:26;;;;;;;7.10;2.60;;;;;;;;;;5073194;28;20155;-52
2021/10/17 04:55:51;;;;;;;6.93;3.28;;;;;;;;;;5069988;28;20572;-56
2021/10/17 04:58:17;;;;;;;7.57;3.22;;;;;;;;;;5073656;28;20044;-54
2021/10/17 05:00:42;;;;;;;5.22;3.20;;;;;;;;;;5074009;28;20033;-57
2021/10/17 05:03:07;;;;;;;8.52;3.58;;;;;;;;;;5074137;28;20456;-55
2021/10/17 05:05:32;;;;;;;8.27;3.40;;;;;;;;;;5073277;28;20021;-57
2021/10/17 05:07:58;;;;;;;8.00;3.17;;;;;;;;;;5073083;28;20546;-55
2021/10/17 05:10:23;;;;;;;7.68;3.25;;;;;;;;;;5074022;28;20028;-57
2021/10/17 05:12:48;;;;;;;5.38;3.10;;;;;;;;;;5073771;28;20424;-55
2021/10/17 05:15:13;;;;;;;7.25;2.63;;;;;;;;;;5073369;28;20059;-57
2021/10/17 05:17:39;;;;;;;9.98;3.53;;;;;;;;;;5073080;28;20033;-54
2021/10/17 05:20:04;;;;;;;7.93;2.95;;;;;;;;;;5072673;28;20036;-53
2021/10/17 05:22:29;;;;;;;9.38;4.55;;;;;;;;;;5073175;28;20044;-57
2021/10/17 05:24:55;;;;;;;6.97;3.00;;;;;;;;;;5073489;28;20029;-52
2021/10/17 05:27:20;;;;;;;8.70;2.75;;;;;;;;;;5067266;28;20048;-56
2021/10/17 05:29:46;;;;;;;5.32;3.08;;;;;;;;;;5073189;28;20020;-52
2021/10/17 05:32:11;;;;;;;9.05;3.50;;;;;;;;;;5073344;28;20560;-57
2021/10/17 05:34:36;;;;;;;6.70;3.10;;;;;;;;;;5072950;28;20020;-57
2021/10/17 05:37:01;;;;;;;7.45;3.40;;;;;;;;;;5072340;28;20028;-57
2021/10/17 05:39:27;;;;;;;5.72;3.08;;;;;;;;;;5073494;28;20081;-56
2021/10/17 05:41:52;;;;;;;4.80;3.00;;;;;;;;;;5073449;28;20051;-57
2021/10/17 05:44:17;;;;;;;7.75;3.47;;;;;;;;;;5072070;28;20047;-55
2021/10/17 05:46:42;;;;;;;5.95;3.08;;;;;;;;;;5072438;28;20397;-57
2021/10/17 05:49:08;;;;;;;5.78;2.53;;;;;;;;;;5072110;28;20017;-56
2021/10/17 05:51:33;;;;;;;9.15;3.03;;;;;;;;;;5072856;28;20038;-54
2021/10/17 05:53:58;;;;;;;6.18;2.78;;;;;;;;;;5072804;28;20093;-57
2021/10/17 05:56:24;;;;;;;7.43;2.70;;;;;;;;;;5069408;28;20020;-57
2021/10/17 05:58:49;;;;;;;5.82;3.10;;;;;;;;;;5072232;28;20078;-56
2021/10/17 06:01:14;;;;;;;5.97;2.42;;;;;;;;;;5072475;28;20090;-56
2021/10/17 06:03:39;;;;;;;8.38;3.05;;;;;;;;;;5072654;28;20016;-56
2021/10/17 06:06:06;;;;;;;3.25;2.20;;;;;;;;;;5072546;28;20033;-54
2021/10/17 06:08:31;;;;;;;7.15;2.83;;;;;;;;;;5072069;28;20043;-55
2021/10/17 06:10:56;;;;;;;5.82;2.33;;;;;;;;;;5071605;28;20465;-54
2021/10/17 06:13:22;;;;;;;3.90;2.38;;;;;;;;;;5072971;28;20461;-56
2021/10/17 06:15:47;;;;;;;7.45;3.13;;;;;;;;;;5071607;28;20033;-56
2021/10/17 06:18:12;;;;;;;7.60;2.97;;;;;;;;;;5071106;28;20021;-57
2021/10/17 06:20:37;;;;;;;5.57;2.47;;;;;;;;;;5072695;28;20063;-56
2021/10/17 06:23:03;;;;;;;5.75;2.10;;;;;;;;;;5071855;28;20024;-55
2021/10/17 06:25:28;;;;;;;3.95;2.13;;;;;;;;;;5068812;28;20044;-57
2021/10/17 06:27:53;;;;;;;5.35;2.45;;;;;;;;;;5069838;28;20024;-56
2021/10/17 06:30:18;;;;;;;4.72;2.33;;;;;;;;;;5087319;28;20028;-57
2021/10/17 06:32:43;;;;;;;6.60;2.72;;;;;;;;;;5072611;28;20040;-57
2021/10/17 06:35:09;;;;;;;6.18;2.78;;;;;;;;;;5065539;28;20090;-56
2021/10/17 06:37:34;;;;;;;5.55;2.25;;;;;;;;;;5060489;28;20107;-52
2021/10/17 06:39:59;;;;;;;3.65;2.35;;;;;;;;;;5071783;28;20055;-54
2021/10/17 06:42:25;;;;;;;6.93;2.42;;;;;;;;;;5072147;28;20035;-56
2021/10/17 06:44:50;;;;;;;5.78;2.45;;;;;;;;;;5071659;28;20020;-54
2021/10/17 06:47:15;;;;;;;4.68;2.10;;;;;;;;;;5071737;28;20040;-56
2021/10/17 06:49:40;;;;;;;5.75;2.42;;;;;;;;;;5071715;28;20024;-57
2021/10/17 06:52:06;;;;;;;8.13;2.63;;;;;;;;;;5070199;28;20025;-58
2021/10/17 06:54:31;;;;;;;6.95;2.80;;;;;;;;;;5071546;28;20464;-56
2021/10/17 06:56:56;;;;;;;7.43;2.70;;;;;;;;;;5066622;28;20065;-55
2021/10/17 06:59:21;;;;;;;6.70;2.20;;;;;;;;;;5073526;28;20035;-55
2021/10/17 07:01:46;;;;;;;5.22;2.17;;;;;;;;;;5081153;28;20286;-57
2021/10/17 07:04:12;;;;;;;4.65;2.15;;;;;;;;;;5077171;28;20020;-55
2021/10/17 07:06:37;;;;;;;5.10;2.25;;;;;;;;;;5073607;28;20134;-56
2021/10/17 07:09:03;;;;;;;3.50;1.90;;;;;;;;;;5083802;28;20469;-56
2021/10/17 07:11:28;;;;;;;4.35;1.60;;;;;;;;;;5077091;28;20028;-48
2021/10/17 07:13:53;;;;;;;4.60;1.70;;;;;;;;;;5071054;28;20023;-55
2021/10/17 07:16:18;;;;;;;5.97;2.80;;;;;;;;;;5087319;28;20048;-53
2021/10/17 07:18:43;;;;;;;4.78;2.63;;;;;;;;;;5088280;28;20365;-56
2021/10/17 07:21:09;;;;;;;4.32;1.35;;;;;;;;;;5079576;28;20515;-56
2021/10/17 07:23:34;;;;;;;4.05;1.50;;;;;;;;;;5084942;28;20452;-56
2021/10/17 07:25:59;;;;;;;3.63;1.52;;;;;;;;;;5075035;28;20041;-56
2021/10/17 07:28:24;;;;;;;3.25;1.85;;;;;;;;;;5070839;28;20032;-56
2021/10/17 07:30:49;;;;;;;4.95;2.30;;;;;;;;;;5070734;28;20028;-56
2021/10/17 07:33:15;;;;;;;5.63;2.10;;;;;;;;;;5071034;28;20025;-49
2021/10/17 07:35:40;;;;;;;4.72;1.83;;;;;;;;;;5083899;28;20033;-56
2021/10/17 07:38:05;;;;;;;6.03;1.70;;;;;;;;;;5078184;28;20016;-51
2021/10/17 07:40:30;;;;;;;3.63;1.80;;;;;;;;;;5072332;28;20032;-55
2021/10/17 07:42:56;;;;;;;7.53;2.20;;;;;;;;;;5065822;28;20021;-56
2021/10/17 07:45:21;;;;;;;6.10;2.03;;;;;;;;;;5072064;28;20028;-57
2021/10/17 07:47:49;;;;;;;4.82;1.92;;;;;;;;;;5075247;28;20024;-57
2021/10/17 07:50:14;;;;;;;4.50;1.67;;;;;;;;;;5072616;28;20100;-57
2021/10/17 07:52:40;;;;;;;5.43;1.70;;;;;;;;;;5078604;28;20625;-56
2021/10/17 07:55:06;;;;;;;6.43;1.83;;;;;;;;;;5071407;28;20036;-53
2021/10/17 07:57:43;;;;;;;3.00;1.23;;;;;;;;;;5066002;28;20028;-58
2021/10/17 08:00:08;;;;;;;6.03;1.70;;;;;;;;;;5067226;28;20035;-59
2021/10/17 08:02:33;;;;;;;5.25;1.75;;;;;;;;;;5081690;28;20040;-55
2021/10/17 08:04:59;;;;;;;6.63;1.75;;;;;;;;;;5073447;28;20029;-57
2021/10/17 08:07:24;;;;;;;5.78;1.60;;;;;;;;;;5069652;28;20563;-58
2021/10/17 08:09:49;;;;;;;6.35;1.63;;;;;;;;;;5081113;28;20043;-56
2021/10/17 08:12:14;;;;;;;4.57;1.70;;;;;;;;;;5075940;28;20043;-58
2021/10/17 08:14:39;;;;;;;4.65;1.65;;;;;;;;;;5079602;28;20365;-58
2021/10/17 08:17:05;;;;;;;3.30;1.88;;;;;;;;;;5072508;28;20070;-54
2021/10/17 08:19:30;;;;;;;4.05;1.70;;;;;;;;;;5066357;28;20032;-55
2021/10/17 08:21:55;;;;;;;6.80;1.80;;;;;;;;;;5077123;28;20047;-54
2021/10/17 08:24:20;;;;;;;4.53;1.27;;;;;;;;;;5071253;28;20052;-58
2021/10/17 08:26:45;;;;;;;4.82;1.30;;;;;;;;;;5067305;28;20047;-58
2021/10/17 08:29:11;;;;;;;4.55;1.58;;;;;;;;;;5077146;28;20078;-57
2021/10/17 08:31:36;;;;;;;5.50;1.60;;;;;;;;;;5085314;28;20024;-58
2021/10/17 08:34:01;;;;;;;4.78;1.90;;;;;;;;;;5089500;28;20072;-59
2021/10/17 08:36:26;;;;;;;4.65;1.40;;;;;;;;;;5067370;28;20036;-58
2021/10/17 08:38:52;;;;;;;4.40;1.58;;;;;;;;;;5064077;28;20025;-59
2021/10/17 08:41:17;;;;;;;4.40;1.88;;;;;;;;;;5074459;28;20036;-56
2021/10/17 08:43:42;;;;;;;3.92;1.42;;;;;;;;;;5073031;28;20061;-56
2021/10/17 08:46:13;;;;;;;5.20;1.67;;;;;;;;;;5067133;28;20090;-57
2021/10/17 08:48:41;;;;;;;5.82;1.48;;;;;;;;;;5070125;28;20035;-56
2021/10/17 08:51:06;;;;;;;5.38;1.77;;;;;;;;;;5072273;28;20138;-57
2021/10/17 08:53:32;;;;;;;4.03;1.58;;;;;;;;;;5071275;28;20491;-57
2021/10/17 08:55:57;;;;;;;4.70;1.40;;;;;;;;;;5080835;28;20032;-56
2021/10/17 08:58:23;;;;;;;3.50;1.35;;;;;;;;;;5077182;28;20078;-57
2021/10/17 09:00:48;;;;;;;3.88;1.40;;;;;;;;;;5086935;28;20472;-55
2021/10/17 09:03:13;;;;;;;3.22;1.17;;;;;;;;;;5085531;28;20044;-52
2021/10/17 09:05:40;;;;;;;6.85;1.70;;;;;;;;;;5081507;28;20059;-57
2021/10/17 09:08:08;;;;;;;5.38;1.38;;;;;;;;;;5081244;28;20028;-57
2021/10/17 09:10:34;;;;;;;5.72;1.27;;;;;;;;;;5073417;28;20032;-56
2021/10/17 09:13:10;;;;;;;3.67;1.20;;;;;;;;;;5076891;28;20024;-57
2021/10/17 09:15:36;;;;;;;5.78;1.27;;;;;;;;;;5054378;28;20106;-57
2021/10/17 09:18:10;;;;;;;4.82;1.40;;;;;;;;;;5053937;28;20048;-54
2021/10/17 09:20:49;;;;;;;3.20;0.63;;;;;;;;;;5085547;28;20028;-56
2021/10/17 09:23:20;;;;;;;4.90;1.10;;;;;;;;;;5074722;28;20039;-56
2021/10/17 09:25:46;;;;;;;4.90;1.10;;;;;;;;;;5069880;28;20040;-58
2021/10/17 09:28:28;;;;;;;4.00;0.95;;;;;;;;;;5071574;28;20047;-54
2021/10/17 09:31:01;;;;;;;5.13;0.65;;;;;;;;;;5075045;28;20035;-58
2021/10/17 09:33:26;;;;;;;5.20;0.77;;;;;;;;;;5073265;28;20051;-58
2021/10/17 09:35:52;;;;;;;3.70;1.05;;;;;;;;;;5077823;28;20095;-54
2021/10/17 09:38:18;;;;;;;4.35;0.77;;;;;;;;;;5077182;28;20081;-58
2021/10/17 09:40:46;;;;;;;3.80;0.90;;;;;;;;;;5070008;28;20019;-55
2021/10/17 09:43:13;;;;;;;4.10;1.00;;;;;;;;;;5075460;28;20059;-58
2021/10/17 09:45:42;;;;;;;5.20;0.88;;;;;;;;;;5078449;28;20024;-57
2021/10/17 09:48:08;;;;;;;4.90;1.08;;;;;;;;;;5074072;28;20054;-58
2021/10/17 09:50:33;;;;;;;3.97;1.10;;;;;;;;;;5090075;28;20016;-57
2021/10/17 09:53:03;;;;;;;5.30;1.00;;;;;;;;;;5071372;28;20016;-55
2021/10/17 09:55:29;;;;;;;2.70;0.70;;;;;;;;;;5085625;28;20426;-57
2021/10/17 09:57:55;;;;;;;2.58;0.55;;;;;;;;;;5073344;28;20051;-54
2021/10/17 10:00:20;;;;;;;3.65;0.82;;;;;;;;;;5072454;28;20089;-53
2021/10/17 10:02:46;;;;;;;5.13;1.00;;;;;;;;;;5075782;28;20056;-58
2021/10/17 10:05:14;;;;;;;2.03;0.65;;;;;;;;;;5065664;28;20028;-58
2021/10/17 10:07:40;;;;;;;3.58;0.98;;;;;;;;;;5052782;28;20029;-60
2021/10/17 10:10:06;;;;;;;5.45;0.60;;;;;;;;;;5072996;28;20066;-58
2021/10/17 10:12:31;;;;;;;4.05;0.80;;;;;;;;;;5081898;28;20094;-53
2021/10/17 10:14:58;;;;;;;3.60;0.60;;;;;;;;;;5072804;28;20020;-57
2021/10/17 10:17:25;;;;;;;3.47;1.00;;;;;;;;;;5072624;28;20388;-59
2021/10/17 10:19:50;;;;;;;2.60;0.70;;;;;;;;;;5076100;28;20099;-50
2021/10/17 10:22:16;;;;;;;2.47;0.63;;;;;;;;;;5081219;28;20500;-61
2021/10/17 10:24:42;;;;;;;3.17;0.65;;;;;;;;;;5075810;28;20032;-59
2021/10/17 10:27:08;;;;;;;3.03;0.70;;;;;;;;;;5068559;28;20481;-59
2021/10/17 10:29:33;;;;;;;1.65;0.60;;;;;;;;;;5075992;28;20027;-59
2021/10/17 10:32:02;;;;;;;2.58;0.70;;;;;;;;;;5071568;28;20032;-59
2021/10/17 10:34:36;;;;;;;3.63;0.40;;;;;;;;;;5059907;28;20083;-59
2021/10/17 10:37:22;;;;;;;2.05;0.40;;;;;;;;;;5064905;28;20035;-59
2021/10/17 10:39:59;;;;;;;5.75;0.90;;;;;;;;;;5070793;28;20033;-58
2021/10/17 10:42:33;;;;;;;1.48;0.50;;;;;;;;;;5079724;28;20028;-58
2021/10/17 10:45:15;;;;;;;3.15;0.75;;;;;;;;;;5074809;28;20016;-57
2021/10/17 10:47:41;;;;;;;2.88;0.60;;;;;;;;;;5069804;28;20069;-53
2021/10/17 10:50:06;;;;;;;2.88;0.47;;;;;;;;;;5076017;28;20516;-58
2021/10/17 10:52:34;;;;;;;2.28;0.73;;;;;;;;;;5074258;28;20057;-59
2021/10/17 10:55:06;;;;;;;2.33;0.70;;;;;;;;;;5075802;28;20035;-54
2021/10/17 10:57:39;;;;;;;3.38;0.70;;;;;;;;;;5067429;28;20082;-58
2021/10/17 11:00:05;;;;;;;4.22;0.68;;;;;;;;;;5075332;28;20016;-57
2021/10/17 11:02:31;;;;;;;3.25;0.40;;;;;;;;;;5072893;28;20027;-58
2021/10/17 11:04:57;;;;;;;2.25;0.80;;;;;;;;;;5075040;28;20384;-52
2021/10/17 11:07:22;;;;;;;1.90;0.35;;;;;;;;;;5073250;28;20036;-53
2021/10/17 11:09:48;;;;;;;3.67;0.40;;;;;;;;;;5076034;28;20105;-56
2021/10/17 11:12:31;;;;;;;1.48;0.35;;;;;;;;;;5074985;28;20336;-58
2021/10/17 11:14:58;;;;;;;4.75;0.60;;;;;;;;;;5074107;28;20020;-55
2021/10/17 11:17:24;;;;;;;2.33;0.20;;;;;;;;;;5090459;28;20027;-58
2021/10/17 11:19:49;;;;;;;2.42;0.22;;;;;;;;;;5080876;28;20016;-58
2021/10/17 11:22:14;;;;;;;3.55;0.40;;;;;;;;;;5070564;28;20031;-58
2021/10/17 11:24:41;;;;;;;2.80;0.30;;;;;;;;;;5069375;28;20078;-59
2021/10/17 11:27:13;;;;;;;3.50;0.30;;;;;;;;;;5064487;28;20052;-57
2021/10/17 11:29:39;;;;;;;1.40;0.40;;;;;;;;;;5071657;28;20100;-57
2021/10/17 11:32:16;;;;;;;1.48;0.40;;;;;;;;;;5074478;28;20024;-61
2021/10/17 11:34:42;;;;;;;3.08;0.75;;;;;;;;;;5074336;28;20031;-58
2021/10/17 11:37:21;;;;;;;0.95;0.30;;;;;;;;;;5073260;28;20029;-54
2021/10/17 11:39:54;;;;;;;1.85;0.40;;;;;;;;;;5070481;28;20031;-52
2021/10/17 11:42:20;;;;;;;1.92;0.60;;;;;;;;;;5071010;28;20451;-59
2021/10/17 11:44:45;;;;;;;2.15;0.40;;;;;;;;;;5073762;28;20017;-59
2021/10/17 11:47:10;;;;;;;2.37;0.30;;;;;;;;;;5078867;28;20021;-58
2021/10/17 11:49:36;;;;;;;2.50;0.40;;;;;;;;;;5071299;28;20284;-59
2021/10/17 11:52:04;;;;;;;1.10;0.40;;;;;;;;;;5070554;28;20927;-58
2021/10/17 11:54:39;;;;;;;2.08;0.45;;;;;;;;;;5068974;28;20147;-59
2021/10/17 11:57:04;;;;;;;1.23;0.50;;;;;;;;;;5064082;28;20112;-58
2021/10/17 11:59:30;;;;;;;3.37;0.50;;;;;;;;;;5065900;28;20162;-59
2021/10/17 12:01:55;;;;;;;3.28;0.43;;;;;;;;;;5074319;28;20648;-58
2021/10/17 12:04:39;;;;;;;2.47;0.50;;;;;;;;;;5070341;28;20033;-57
2021/10/17 12:07:04;;;;;;;2.00;0.47;;;;;;;;;;5070588;28;20274;-58
2021/10/17 12:09:29;;;;;;;1.42;0.43;;;;;;;;;;5069058;28;20104;-59
2021/10/17 12:12:00;;;;;;;2.40;0.60;;;;;;;;;;5083939;28;20024;-59
2021/10/17 12:14:26;;;;;;;2.20;0.40;;;;;;;;;;5074507;28;20078;-60
2021/10/17 12:16:54;;;;;;;2.00;0.50;;;;;;;;;;5074391;28;20016;-59
2021/10/17 12:19:26;;;;;;;2.00;0.52;;;;;;;;;;5075509;28;20038;-59
2021/10/17 12:21:51;;;;;;;2.08;0.40;;;;;;;;;;5073708;28;20021;-60
2021/10/17 12:24:18;;;;;;;3.03;0.45;;;;;;;;;;5073272;28;20187;-60
2021/10/17 12:26:56;;;;;;;2.78;0.60;;;;;;;;;;5069359;28;20029;-60
2021/10/17 12:29:23;;;;;;;2.10;0.50;;;;;;;;;;5081821;28;20024;-60
2021/10/17 12:31:53;;;;;;;1.85;0.40;;;;;;;;;;5080380;28;20081;-60
2021/10/17 12:34:35;;;;;;;1.75;0.52;;;;;;;;;;5075025;28;20547;-59
2021/10/17 12:37:01;;;;;;;2.63;0.50;;;;;;;;;;5075767;28;20035;-57
2021/10/17 12:39:26;;;;;;;2.50;0.52;;;;;;;;;;5080168;28;20543;-55
2021/10/17 12:41:56;;;;;;;2.57;0.50;;;;;;;;;;5081901;28;20047;-56
2021/10/17 12:44:21;;;;;;;1.98;0.30;;;;;;;;;;5077841;28;20279;-59
2021/10/17 12:47:00;;;;;;;3.30;0.40;;;;;;;;;;5091316;28;20468;-59
2021/10/17 12:49:35;;;;;;;2.33;0.40;;;;;;;;;;5073230;28;20271;-59
2021/10/17 12:52:00;;;;;;;2.10;0.20;;;;;;;;;;5075668;28;20031;-57
2021/10/17 12:54:26;;;;;;;1.53;0.43;;;;;;;;;;5075826;28;20255;-58
2021/10/17 12:56:52;;;;;;;2.35;0.32;;;;;;;;;;5072915;28;20315;-58
2021/10/17 12:59:24;;;;;;;1.35;0.40;;;;;;;;;;5083436;28;20012;-54
2021/10/17 13:02:02;;;;;;;1.23;0.22;;;;;;;;;;5074325;28;20289;-58
2021/10/17 13:04:46;;;;;;;1.95;0.30;;;;;;;;;;5077463;28;20038;-55
2021/10/17 13:07:12;;;;;;;3.22;0.50;;;;;;;;;;5074029;28;20096;-60
2021/10/17 13:09:45;;;;;;;1.83;0.40;;;;;;;;;;5075581;28;20023;-56
2021/10/17 13:12:19;;;;;;;1.33;0.30;;;;;;;;;;5070654;28;20046;-58
2021/10/17 13:15:02;;;;;;;1.67;0.40;;;;;;;;;;5076669;28;20515;-58
2021/10/17 13:17:27;;;;;;;2.58;0.32;;;;;;;;;;5078200;28;20031;-57
2021/10/17 13:19:53;;;;;;;1.05;0.20;;;;;;;;;;5071639;28;20017;-59
2021/10/17 13:22:18;;;;;;;3.00;0.40;;;;;;;;;;5074943;28;20430;-59
2021/10/17 13:24:43;;;;;;;2.13;0.30;;;;;;;;;;5079760;28;20035;-58
2021/10/17 13:27:09;;;;;;;1.58;0.22;;;;;;;;;;5069162;28;20045;-54
2021/10/17 13:29:34;;;;;;;1.50;0.38;;;;;;;;;;5080175;28;20078;-59
2021/10/17 13:32:00;;;;;;;2.67;0.38;;;;;;;;;;5077686;28;20056;-59
2021/10/17 13:34:25;;;;;;;2.03;0.35;;;;;;;;;;5072171;28;20028;-60
2021/10/17 13:36:51;;;;;;;2.85;0.95;;;;;;;;;;5083962;28;20099;-59
2021/10/17 13:39:16;;;;;;;2.58;0.60;;;;;;;;;;5072428;28;20028;-59
2021/10/17 13:41:41;;;;;;;2.78;0.55;;;;;;;;;;5085599;28;20086;-58
2021/10/17 13:44:07;;;;;;;3.00;0.45;;;;;;;;;;5071733;28;20024;-58
2021/10/17 13:46:36;;;;;;;1.67;0.30;;;;;;;;;;5072808;28;20568;-58
2021/10/17 13:49:01;;;;;;;5.22;0.43;;;;;;;;;;5073295;28;20026;-59
2021/10/17 13:51:26;;;;;;;1.35;0.20;;;;;;;;;;5071886;28;20024;-58
2021/10/17 13:53:53;;;;;;;1.35;0.50;;;;;;;;;;5076752;28;20025;-58
2021/10/17 13:56:18;;;;;;;1.85;0.40;;;;;;;;;;5068037;28;20027;-56
2021/10/17 13:58:44;;;;;;;0.90;0.20;;;;;;;;;;5079932;28;20020;-58
2021/10/17 14:01:09;;;;;;;1.38;0.30;;;;;;;;;;5077335;28;20033;-58
2021/10/17 14:03:34;;;;;;;2.03;0.63;;;;;;;;;;5070805;28;20056;-56
2021/10/17 14:06:00;;;;;;;1.95;0.25;;;;;;;;;;5070729;28;20093;-58
2021/10/17 14:08:25;;;;;;;1.27;0.30;;;;;;;;;;5073074;28;20102;-57
2021/10/17 14:10:51;;;;;;;1.95;0.22;;;;;;;;;;5090639;28;20031;-58
2021/10/17 14:13:17;;;;;;;2.25;0.30;;;;;;;;;;5072824;28;20021;-52
2021/10/17 14:15:42;;;;;;;1.45;0.20;;;;;;;;;;5076459;28;20021;-60
2021/10/17 14:18:07;;;;;;;1.25;0.30;;;;;;;;;;5080396;28;20020;-56
2021/10/17 14:20:33;;;;;;;2.53;0.43;;;;;;;;;;5083219;28;20123;-58
2021/10/17 14:22:58;;;;;;;1.85;0.43;;;;;;;;;;5075001;28;20036;-58
2021/10/17 14:25:23;;;;;;;1.50;0.43;;;;;;;;;;5074311;28;20380;-56
2021/10/17 14:27:48;;;;;;;1.50;0.40;;;;;;;;;;5075802;28;20471;-57
2021/10/17 14:30:13;;;;;;;1.52;0.77;;;;;;;;;;5076154;28;20036;-58
2021/10/17 14:32:40;;;;;;;2.42;0.40;;;;;;;;;;5066006;28;20049;-54
2021/10/17 14:35:05;;;;;;;2.65;0.60;;;;;;;;;;5063361;28;20107;-58
2021/10/17 14:37:30;;;;;;;1.27;0.28;;;;;;;;;;5071713;28;20392;-56